ASA1489 KPDX-PANC
Flight info
| Callsign | ASA1489 |
|---|---|
| Flight time | N/A |
| Altitude | 38000 |
| Route | ARRIE TOU PRYCE BKA LAIRE JOH WITTI5 |
| Aircraft | B738/M-SDE2E3FGHIRWXY/LB1 |
Departure
| Time | 2026-04-30 14:54 |
|---|---|
| Airport | Portland International Airport (KPDX) |
Arrival
| Time | N/A |
|---|---|
| Airport | Ted Stevens Anchorage International Airport (PANC) |
| Time | Latitude | Longitude | Altitude | Speed | Heading |
|---|---|---|---|---|---|
| 2026-04-30 14:35 | 45.58900 | -122.59794 | 28 ft | 0 kts | 15° |
| 2026-04-30 14:45 | 45.58895 | -122.59795 | 28 ft | 3 kts | 15° |
| 2026-04-30 14:45 | 45.58869 | -122.59807 | 28 ft | 4 kts | 24° |
| 2026-04-30 14:46 | 45.58849 | -122.59821 | 28 ft | 4 kts | 37° |
| 2026-04-30 14:46 | 45.58837 | -122.59848 | 27 ft | 4 kts | 92° |
| 2026-04-30 14:46 | 45.58843 | -122.59882 | 27 ft | 3 kts | 118° |
| 2026-04-30 14:46 | 45.58851 | -122.59904 | 27 ft | 4 kts | 118° |
| 2026-04-30 14:47 | 45.58862 | -122.59931 | 27 ft | 0 kts | 118° |
| 2026-04-30 14:49 | 45.58861 | -122.59929 | 27 ft | 2 kts | 118° |
| 2026-04-30 14:49 | 45.58847 | -122.59894 | 27 ft | 7 kts | 118° |
| 2026-04-30 14:49 | 45.58813 | -122.59804 | 28 ft | 13 kts | 120° |
| 2026-04-30 14:50 | 45.58699 | -122.59685 | 28 ft | 15 kts | 174° |
| 2026-04-30 14:50 | 45.58614 | -122.59510 | 28 ft | 19 kts | 119° |
| 2026-04-30 14:51 | 45.58475 | -122.59153 | 27 ft | 21 kts | 118° |
| 2026-04-30 14:51 | 45.58427 | -122.59031 | 27 ft | 21 kts | 119° |
| 2026-04-30 14:51 | 45.58291 | -122.58685 | 28 ft | 19 kts | 119° |
| 2026-04-30 14:52 | 45.58227 | -122.58520 | 28 ft | 19 kts | 119° |
| 2026-04-30 14:52 | 45.58079 | -122.58407 | 27 ft | 7 kts | 237° |
| 2026-04-30 14:52 | 45.58090 | -122.58481 | 28 ft | 15 kts | 297° |
| 2026-04-30 14:53 | 45.58534 | -122.59621 | 30 ft | 124 kts | 299° |
| 2026-04-30 14:53 | 45.59030 | -122.60793 | 45 ft | 137 kts | 300° |
| 2026-04-30 14:54 | 45.60010 | -122.63541 | 613 ft | 175 kts | 296° |
| 2026-04-30 14:54 | 45.61680 | -122.65985 | 1483 ft | 195 kts | 350° |
| 2026-04-30 14:55 | 45.64610 | -122.66897 | 1854 ft | 235 kts | 348° |
| 2026-04-30 14:55 | 45.66260 | -122.67471 | 2028 ft | 252 kts | 349° |
| 2026-04-30 14:55 | 45.69758 | -122.68883 | 3043 ft | 267 kts | 344° |
| 2026-04-30 14:56 | 45.73433 | -122.70094 | 4325 ft | 275 kts | 349° |
| 2026-04-30 14:56 | 45.77194 | -122.71369 | 5695 ft | 280 kts | 347° |
| 2026-04-30 14:57 | 45.79080 | -122.72049 | 6446 ft | 280 kts | 345° |
| 2026-04-30 14:57 | 45.82882 | -122.73420 | 7819 ft | 285 kts | 347° |
| 2026-04-30 14:58 | 45.98433 | -122.78789 | 12275 ft | 338 kts | 347° |
| 2026-04-30 14:58 | 46.08110 | -122.82188 | 14416 ft | 371 kts | 346° |
| 2026-04-30 14:58 | 46.28810 | -122.89490 | 19448 ft | 395 kts | 346° |
| 2026-04-30 14:59 | 46.50701 | -122.97274 | 23638 ft | 417 kts | 346° |